sensor_id;sensor_type;location;lat;lon;timestamp;P1;durP1;ratioP1;P2;durP2;ratioP2
15273;SDS011;7738;49.532;11.156;2022-08-23T00:01:57;7.20;;;3.42;;
15273;SDS011;7738;49.532;11.156;2022-08-23T00:04:28;8.43;;;3.95;;
15273;SDS011;7738;49.532;11.156;2022-08-23T00:07:00;5.82;;;3.42;;
15273;SDS011;7738;49.532;11.156;2022-08-23T00:09:31;4.50;;;3.30;;
15273;SDS011;7738;49.532;11.156;2022-08-23T00:12:03;5.07;;;3.05;;
15273;SDS011;7738;49.532;11.156;2022-08-23T00:14:37;3.85;;;2.83;;
15273;SDS011;7738;49.532;11.156;2022-08-23T00:17:11;4.95;;;3.58;;
15273;SDS011;7738;49.532;11.156;2022-08-23T00:19:59;3.45;;;3.13;;
15273;SDS011;7738;49.532;11.156;2022-08-23T00:22:29;9.35;;;3.85;;
15273;SDS011;7738;49.532;11.156;2022-08-23T00:25:00;5.13;;;4.03;;
15273;SDS011;7738;49.532;11.156;2022-08-23T00:27:30;8.68;;;4.20;;
15273;SDS011;7738;49.532;11.156;2022-08-23T00:30:04;4.35;;;3.95;;
15273;SDS011;7738;49.532;11.156;2022-08-23T00:32:36;5.28;;;3.42;;
15273;SDS011;7738;49.532;11.156;2022-08-23T00:35:08;6.25;;;3.88;;
15273;SDS011;7738;49.532;11.156;2022-08-23T00:37:52;5.72;;;4.25;;
15273;SDS011;7738;49.532;11.156;2022-08-23T00:40:43;4.40;;;3.95;;
15273;SDS011;7738;49.532;11.156;2022-08-23T00:43:17;4.82;;;4.43;;
15273;SDS011;7738;49.532;11.156;2022-08-23T00:46:08;4.13;;;3.38;;
15273;SDS011;7738;49.532;11.156;2022-08-23T00:48:55;6.38;;;4.20;;
15273;SDS011;7738;49.532;11.156;2022-08-23T00:51:27;6.30;;;4.50;;
15273;SDS011;7738;49.532;11.156;2022-08-23T00:54:18;5.43;;;4.43;;
15273;SDS011;7738;49.532;11.156;2022-08-23T00:56:49;5.75;;;4.57;;
15273;SDS011;7738;49.532;11.156;2022-08-23T00:59:20;7.35;;;4.65;;
15273;SDS011;7738;49.532;11.156;2022-08-23T01:01:53;5.18;;;4.47;;
15273;SDS011;7738;49.532;11.156;2022-08-23T01:04:24;8.77;;;4.72;;
15273;SDS011;7738;49.532;11.156;2022-08-23T01:06:56;4.65;;;4.15;;
15273;SDS011;7738;49.532;11.156;2022-08-23T01:09:27;8.85;;;5.80;;
15273;SDS011;7738;49.532;11.156;2022-08-23T01:11:59;8.05;;;5.35;;
15273;SDS011;7738;49.532;11.156;2022-08-23T01:14:39;7.18;;;4.88;;
15273;SDS011;7738;49.532;11.156;2022-08-23T01:17:15;6.65;;;4.95;;
15273;SDS011;7738;49.532;11.156;2022-08-23T01:19:48;5.93;;;4.78;;
15273;SDS011;7738;49.532;11.156;2022-08-23T01:22:24;9.15;;;4.30;;
15273;SDS011;7738;49.532;11.156;2022-08-23T01:24:59;5.15;;;4.47;;
15273;SDS011;7738;49.532;11.156;2022-08-23T01:27:39;6.50;;;4.80;;
15273;SDS011;7738;49.532;11.156;2022-08-23T01:30:14;5.07;;;4.38;;
15273;SDS011;7738;49.532;11.156;2022-08-23T01:32:46;9.40;;;4.10;;
15273;SDS011;7738;49.532;11.156;2022-08-23T01:35:17;6.05;;;4.47;;
15273;SDS011;7738;49.532;11.156;2022-08-23T01:38:07;5.68;;;4.53;;
15273;SDS011;7738;49.532;11.156;2022-08-23T01:40:42;6.32;;;4.60;;
15273;SDS011;7738;49.532;11.156;2022-08-23T01:43:13;5.35;;;4.20;;
15273;SDS011;7738;49.532;11.156;2022-08-23T01:45:47;4.47;;;3.90;;
15273;SDS011;7738;49.532;11.156;2022-08-23T01:48:19;5.82;;;4.32;;
15273;SDS011;7738;49.532;11.156;2022-08-23T01:50:50;4.38;;;3.97;;
15273;SDS011;7738;49.532;11.156;2022-08-23T01:53:22;6.75;;;4.57;;
15273;SDS011;7738;49.532;11.156;2022-08-23T01:55:55;5.28;;;4.78;;
15273;SDS011;7738;49.532;11.156;2022-08-23T01:58:30;4.85;;;4.35;;
15273;SDS011;7738;49.532;11.156;2022-08-23T02:01:00;4.55;;;4.15;;
15273;SDS011;7738;49.532;11.156;2022-08-23T02:03:32;4.60;;;4.20;;
15273;SDS011;7738;49.532;11.156;2022-08-23T02:06:03;5.40;;;3.95;;
15273;SDS011;7738;49.532;11.156;2022-08-23T02:08:34;4.90;;;4.38;;
15273;SDS011;7738;49.532;11.156;2022-08-23T02:11:23;6.07;;;4.30;;
15273;SDS011;7738;49.532;11.156;2022-08-23T02:16:38;5.55;;;4.35;;
15273;SDS011;7738;49.532;11.156;2022-08-23T02:19:28;7.57;;;4.47;;
15273;SDS011;7738;49.532;11.156;2022-08-23T02:22:00;5.10;;;3.85;;
15273;SDS011;7738;49.532;11.156;2022-08-23T02:24:30;6.35;;;5.05;;
15273;SDS011;7738;49.532;11.156;2022-08-23T02:27:04;5.22;;;4.32;;
15273;SDS011;7738;49.532;11.156;2022-08-23T02:29:38;5.43;;;4.13;;
15273;SDS011;7738;49.532;11.156;2022-08-23T02:32:09;5.30;;;4.80;;
15273;SDS011;7738;49.532;11.156;2022-08-23T02:34:41;6.45;;;5.85;;
15273;SDS011;7738;49.532;11.156;2022-08-23T02:37:31;7.85;;;5.07;;
15273;SDS011;7738;49.532;11.156;2022-08-23T02:40:02;6.05;;;5.47;;
15273;SDS011;7738;49.532;11.156;2022-08-23T02:42:36;5.65;;;5.07;;
15273;SDS011;7738;49.532;11.156;2022-08-23T02:45:07;4.97;;;4.53;;
15273;SDS011;7738;49.532;11.156;2022-08-23T02:47:43;5.63;;;4.88;;
15273;SDS011;7738;49.532;11.156;2022-08-23T02:50:19;5.10;;;4.60;;
15273;SDS011;7738;49.532;11.156;2022-08-23T02:52:51;7.70;;;4.63;;
15273;SDS011;7738;49.532;11.156;2022-08-23T02:55:22;5.80;;;5.07;;
15273;SDS011;7738;49.532;11.156;2022-08-23T02:57:55;7.78;;;5.35;;
15273;SDS011;7738;49.532;11.156;2022-08-23T03:00:25;4.95;;;4.45;;
15273;SDS011;7738;49.532;11.156;2022-08-23T03:02:56;5.10;;;4.30;;
15273;SDS011;7738;49.532;11.156;2022-08-23T03:05:26;7.45;;;4.93;;
15273;SDS011;7738;49.532;11.156;2022-08-23T03:07:56;7.05;;;4.75;;
15273;SDS011;7738;49.532;11.156;2022-08-23T03:10:33;9.23;;;5.25;;
15273;SDS011;7738;49.532;11.156;2022-08-23T03:13:06;7.38;;;4.95;;
15273;SDS011;7738;49.532;11.156;2022-08-23T03:15:37;10.57;;;6.03;;
15273;SDS011;7738;49.532;11.156;2022-08-23T03:18:08;5.85;;;5.30;;
15273;SDS011;7738;49.532;11.156;2022-08-23T03:20:39;7.20;;;5.95;;
15273;SDS011;7738;49.532;11.156;2022-08-23T03:23:11;7.18;;;5.65;;
15273;SDS011;7738;49.532;11.156;2022-08-23T03:25:41;6.50;;;5.90;;
15273;SDS011;7738;49.532;11.156;2022-08-23T03:28:34;5.35;;;4.85;;
15273;SDS011;7738;49.532;11.156;2022-08-23T03:31:07;5.72;;;5.18;;
15273;SDS011;7738;49.532;11.156;2022-08-23T03:33:47;5.18;;;4.13;;
15273;SDS011;7738;49.532;11.156;2022-08-23T03:36:17;4.82;;;4.32;;
15273;SDS011;7738;49.532;11.156;2022-08-23T03:38:54;5.40;;;4.72;;
15273;SDS011;7738;49.532;11.156;2022-08-23T03:41:25;6.15;;;4.28;;
15273;SDS011;7738;49.532;11.156;2022-08-23T03:43:58;4.80;;;3.95;;
15273;SDS011;7738;49.532;11.156;2022-08-23T03:46:31;6.13;;;4.03;;
15273;SDS011;7738;49.532;11.156;2022-08-23T03:49:02;4.75;;;4.28;;
15273;SDS011;7738;49.532;11.156;2022-08-23T03:51:49;6.15;;;4.18;;
15273;SDS011;7738;49.532;11.156;2022-08-23T03:54:19;6.28;;;4.20;;
15273;SDS011;7738;49.532;11.156;2022-08-23T03:56:52;5.20;;;3.70;;
15273;SDS011;7738;49.532;11.156;2022-08-23T03:59:30;4.70;;;4.25;;
15273;SDS011;7738;49.532;11.156;2022-08-23T04:02:05;6.63;;;4.60;;
15273;SDS011;7738;49.532;11.156;2022-08-23T04:04:37;7.68;;;5.28;;
15273;SDS011;7738;49.532;11.156;2022-08-23T04:07:26;6.90;;;5.15;;
15273;SDS011;7738;49.532;11.156;2022-08-23T04:09:57;5.43;;;4.93;;
15273;SDS011;7738;49.532;11.156;2022-08-23T04:12:33;6.40;;;4.80;;
15273;SDS011;7738;49.532;11.156;2022-08-23T04:15:12;5.47;;;4.35;;
15273;SDS011;7738;49.532;11.156;2022-08-23T04:17:43;6.18;;;5.57;;
15273;SDS011;7738;49.532;11.156;2022-08-23T04:20:14;6.57;;;5.10;;
15273;SDS011;7738;49.532;11.156;2022-08-23T04:22:55;7.18;;;5.03;;
15273;SDS011;7738;49.532;11.156;2022-08-23T04:25:29;4.95;;;4.45;;
15273;SDS011;7738;49.532;11.156;2022-08-23T04:28:02;7.63;;;4.93;;
15273;SDS011;7738;49.532;11.156;2022-08-23T04:30:36;6.47;;;5.20;;
15273;SDS011;7738;49.532;11.156;2022-08-23T04:33:07;9.88;;;6.70;;
15273;SDS011;7738;49.532;11.156;2022-08-23T04:35:43;7.75;;;5.85;;
15273;SDS011;7738;49.532;11.156;2022-08-23T04:38:18;7.88;;;5.30;;
15273;SDS011;7738;49.532;11.156;2022-08-23T04:40:53;6.53;;;5.50;;
15273;SDS011;7738;49.532;11.156;2022-08-23T04:43:37;7.53;;;6.60;;
15273;SDS011;7738;49.532;11.156;2022-08-23T04:46:14;7.90;;;6.25;;
15273;SDS011;7738;49.532;11.156;2022-08-23T04:48:45;8.65;;;6.20;;
15273;SDS011;7738;49.532;11.156;2022-08-23T04:51:18;7.25;;;6.55;;
15273;SDS011;7738;49.532;11.156;2022-08-23T04:53:48;11.00;;;6.50;;
15273;SDS011;7738;49.532;11.156;2022-08-23T04:56:30;7.10;;;6.38;;
15273;SDS011;7738;49.532;11.156;2022-08-23T04:59:01;8.73;;;6.63;;
15273;SDS011;7738;49.532;11.156;2022-08-23T05:01:34;9.55;;;6.35;;
15273;SDS011;7738;49.532;11.156;2022-08-23T05:04:05;6.18;;;5.68;;
15273;SDS011;7738;49.532;11.156;2022-08-23T05:06:37;5.82;;;4.82;;
15273;SDS011;7738;49.532;11.156;2022-08-23T05:09:08;11.80;;;4.70;;
15273;SDS011;7738;49.532;11.156;2022-08-23T05:11:45;5.88;;;4.50;;
15273;SDS011;7738;49.532;11.156;2022-08-23T05:14:16;4.95;;;4.35;;
15273;SDS011;7738;49.532;11.156;2022-08-23T05:16:50;4.72;;;4.32;;
15273;SDS011;7738;49.532;11.156;2022-08-23T05:19:21;6.18;;;4.70;;
15273;SDS011;7738;49.532;11.156;2022-08-23T05:21:51;5.30;;;4.00;;
15273;SDS011;7738;49.532;11.156;2022-08-23T05:24:31;7.82;;;5.35;;
15273;SDS011;7738;49.532;11.156;2022-08-23T05:27:01;8.02;;;6.35;;
15273;SDS011;7738;49.532;11.156;2022-08-23T05:29:36;9.23;;;7.22;;
15273;SDS011;7738;49.532;11.156;2022-08-23T05:32:09;8.13;;;7.13;;
15273;SDS011;7738;49.532;11.156;2022-08-23T05:34:39;7.93;;;7.05;;
15273;SDS011;7738;49.532;11.156;2022-08-23T05:37:09;7.53;;;6.93;;
15273;SDS011;7738;49.532;11.156;2022-08-23T05:39:40;10.80;;;8.00;;
15273;SDS011;7738;49.532;11.156;2022-08-23T05:42:12;7.88;;;7.10;;
15273;SDS011;7738;49.532;11.156;2022-08-23T05:44:44;8.05;;;7.07;;
15273;SDS011;7738;49.532;11.156;2022-08-23T05:47:18;10.18;;;7.63;;
15273;SDS011;7738;49.532;11.156;2022-08-23T05:50:04;8.10;;;7.18;;
15273;SDS011;7738;49.532;11.156;2022-08-23T05:52:36;7.25;;;6.07;;
15273;SDS011;7738;49.532;11.156;2022-08-23T05:55:08;9.23;;;6.68;;
15273;SDS011;7738;49.532;11.156;2022-08-23T05:57:38;8.70;;;7.63;;
15273;SDS011;7738;49.532;11.156;2022-08-23T06:00:09;8.13;;;6.70;;
15273;SDS011;7738;49.532;11.156;2022-08-23T06:02:58;10.10;;;7.10;;
15273;SDS011;7738;49.532;11.156;2022-08-23T06:05:28;7.60;;;6.88;;
15273;SDS011;7738;49.532;11.156;2022-08-23T06:07:59;6.82;;;5.68;;
15273;SDS011;7738;49.532;11.156;2022-08-23T06:10:30;7.88;;;5.97;;
15273;SDS011;7738;49.532;11.156;2022-08-23T06:13:20;9.70;;;5.38;;
15273;SDS011;7738;49.532;11.156;2022-08-23T06:15:51;9.23;;;5.50;;
15273;SDS011;7738;49.532;11.156;2022-08-23T06:18:23;8.43;;;5.35;;
15273;SDS011;7738;49.532;11.156;2022-08-23T06:21:02;5.85;;;5.35;;
15273;SDS011;7738;49.532;11.156;2022-08-23T06:23:45;7.43;;;4.93;;
15273;SDS011;7738;49.532;11.156;2022-08-23T06:26:16;8.77;;;4.68;;
15273;SDS011;7738;49.532;11.156;2022-08-23T06:28:48;6.47;;;4.50;;
15273;SDS011;7738;49.532;11.156;2022-08-23T06:31:21;4.90;;;4.47;;
15273;SDS011;7738;49.532;11.156;2022-08-23T06:34:11;6.10;;;4.25;;
15273;SDS011;7738;49.532;11.156;2022-08-23T06:37:00;7.03;;;4.13;;
15273;SDS011;7738;49.532;11.156;2022-08-23T06:39:50;10.32;;;4.32;;
15273;SDS011;7738;49.532;11.156;2022-08-23T06:42:42;5.15;;;4.40;;
15273;SDS011;7738;49.532;11.156;2022-08-23T06:45:17;5.40;;;3.92;;
15273;SDS011;7738;49.532;11.156;2022-08-23T06:47:59;5.45;;;3.83;;
15273;SDS011;7738;49.532;11.156;2022-08-23T06:50:33;4.53;;;3.20;;
15273;SDS011;7738;49.532;11.156;2022-08-23T06:53:21;6.97;;;3.88;;
15273;SDS011;7738;49.532;11.156;2022-08-23T06:55:58;7.85;;;4.05;;
15273;SDS011;7738;49.532;11.156;2022-08-23T06:58:39;8.00;;;3.75;;
15273;SDS011;7738;49.532;11.156;2022-08-23T07:01:32;7.28;;;4.10;;
15273;SDS011;7738;49.532;11.156;2022-08-23T07:04:23;7.88;;;3.58;;
15273;SDS011;7738;49.532;11.156;2022-08-23T07:07:30;6.05;;;2.80;;
15273;SDS011;7738;49.532;11.156;2022-08-23T07:10:07;4.57;;;2.28;;
15273;SDS011;7738;49.532;11.156;2022-08-23T07:12:38;3.17;;;2.30;;
15273;SDS011;7738;49.532;11.156;2022-08-23T07:15:11;3.95;;;2.00;;
15273;SDS011;7738;49.532;11.156;2022-08-23T07:17:43;5.53;;;2.00;;
15273;SDS011;7738;49.532;11.156;2022-08-23T07:20:13;5.18;;;2.10;;
15273;SDS011;7738;49.532;11.156;2022-08-23T07:22:46;5.30;;;2.53;;
15273;SDS011;7738;49.532;11.156;2022-08-23T07:25:16;4.57;;;2.13;;
15273;SDS011;7738;49.532;11.156;2022-08-23T07:27:51;3.33;;;2.22;;
15273;SDS011;7738;49.532;11.156;2022-08-23T07:30:23;5.10;;;1.40;;
15273;SDS011;7738;49.532;11.156;2022-08-23T07:32:53;5.18;;;2.17;;
15273;SDS011;7738;49.532;11.156;2022-08-23T07:35:26;5.63;;;1.48;;
15273;SDS011;7738;49.532;11.156;2022-08-23T07:38:00;3.00;;;1.65;;
15273;SDS011;7738;49.532;11.156;2022-08-23T07:40:33;2.17;;;1.40;;
15273;SDS011;7738;49.532;11.156;2022-08-23T07:43:05;2.38;;;1.40;;
15273;SDS011;7738;49.532;11.156;2022-08-23T07:45:36;2.70;;;1.25;;
15273;SDS011;7738;49.532;11.156;2022-08-23T07:48:09;3.50;;;1.40;;
15273;SDS011;7738;49.532;11.156;2022-08-23T07:51:09;3.58;;;1.30;;
15273;SDS011;7738;49.532;11.156;2022-08-23T07:53:44;2.03;;;0.60;;
15273;SDS011;7738;49.532;11.156;2022-08-23T07:56:16;2.17;;;1.13;;
15273;SDS011;7738;49.532;11.156;2022-08-23T07:58:58;2.25;;;1.23;;
15273;SDS011;7738;49.532;11.156;2022-08-23T08:01:39;1.38;;;0.70;;
15273;SDS011;7738;49.532;11.156;2022-08-23T08:04:11;2.22;;;0.75;;
15273;SDS011;7738;49.532;11.156;2022-08-23T08:06:45;3.70;;;0.80;;
15273;SDS011;7738;49.532;11.156;2022-08-23T08:09:43;2.80;;;0.68;;
15273;SDS011;7738;49.532;11.156;2022-08-23T08:12:15;1.08;;;0.40;;
15273;SDS011;7738;49.532;11.156;2022-08-23T08:14:48;2.47;;;0.60;;
15273;SDS011;7738;49.532;11.156;2022-08-23T08:17:22;2.63;;;0.63;;
15273;SDS011;7738;49.532;11.156;2022-08-23T08:20:02;4.85;;;0.43;;
15273;SDS011;7738;49.532;11.156;2022-08-23T08:22:49;2.13;;;0.30;;
15273;SDS011;7738;49.532;11.156;2022-08-23T08:28:35;5.38;;;0.90;;
15273;SDS011;7738;49.532;11.156;2022-08-23T08:31:06;1.88;;;0.40;;
15273;SDS011;7738;49.532;11.156;2022-08-23T08:33:37;1.52;;;0.40;;
15273;SDS011;7738;49.532;11.156;2022-08-23T08:36:08;2.83;;;0.43;;
15273;SDS011;7738;49.532;11.156;2022-08-23T08:38:58;2.78;;;0.40;;
15273;SDS011;7738;49.532;11.156;2022-08-23T08:41:42;1.70;;;0.60;;
15273;SDS011;7738;49.532;11.156;2022-08-23T08:44:36;3.05;;;0.30;;
15273;SDS011;7738;49.532;11.156;2022-08-23T08:47:15;2.30;;;0.20;;
15273;SDS011;7738;49.532;11.156;2022-08-23T08:49:52;2.53;;;0.30;;
15273;SDS011;7738;49.532;11.156;2022-08-23T08:52:31;0.65;;;0.15;;
15273;SDS011;7738;49.532;11.156;2022-08-23T08:55:13;0.82;;;0.25;;
15273;SDS011;7738;49.532;11.156;2022-08-23T08:57:50;3.28;;;0.15;;
15273;SDS011;7738;49.532;11.156;2022-08-23T09:00:27;2.80;;;0.30;;
15273;SDS011;7738;49.532;11.156;2022-08-23T09:02:59;0.98;;;0.43;;
15273;SDS011;7738;49.532;11.156;2022-08-23T09:05:35;2.88;;;0.50;;
15273;SDS011;7738;49.532;11.156;2022-08-23T09:08:11;2.67;;;0.30;;
15273;SDS011;7738;49.532;11.156;2022-08-23T09:10:53;1.00;;;0.25;;
15273;SDS011;7738;49.532;11.156;2022-08-23T09:13:34;1.33;;;0.20;;
15273;SDS011;7738;49.532;11.156;2022-08-23T09:16:26;1.33;;;0.30;;
15273;SDS011;7738;49.532;11.156;2022-08-23T09:19:04;0.90;;;0.15;;
15273;SDS011;7738;49.532;11.156;2022-08-23T09:21:37;1.65;;;0.10;;
15273;SDS011;7738;49.532;11.156;2022-08-23T09:24:12;1.10;;;0.30;;
15273;SDS011;7738;49.532;11.156;2022-08-23T09:27:03;1.30;;;0.15;;
15273;SDS011;7738;49.532;11.156;2022-08-23T09:29:37;0.93;;;0.20;;
15273;SDS011;7738;49.532;11.156;2022-08-23T09:32:25;0.90;;;0.20;;
15273;SDS011;7738;49.532;11.156;2022-08-23T09:35:06;1.92;;;0.20;;
15273;SDS011;7738;49.532;11.156;2022-08-23T09:37:54;2.15;;;0.20;;
15273;SDS011;7738;49.532;11.156;2022-08-23T09:40:29;1.00;;;0.10;;
15273;SDS011;7738;49.532;11.156;2022-08-23T09:43:10;1.38;;;0.20;;
15273;SDS011;7738;49.532;11.156;2022-08-23T09:45:51;0.63;;;0.10;;
15273;SDS011;7738;49.532;11.156;2022-08-23T09:48:33;0.70;;;0.10;;
15273;SDS011;7738;49.532;11.156;2022-08-23T09:51:14;0.30;;;0.10;;
15273;SDS011;7738;49.532;11.156;2022-08-23T09:53:48;1.08;;;0.20;;
15273;SDS011;7738;49.532;11.156;2022-08-23T09:56:21;2.33;;;0.10;;
15273;SDS011;7738;49.532;11.156;2022-08-23T09:58:53;1.43;;;0.10;;
15273;SDS011;7738;49.532;11.156;2022-08-23T10:01:35;1.40;;;0.20;;
15273;SDS011;7738;49.532;11.156;2022-08-23T10:04:14;1.73;;;0.40;;
15273;SDS011;7738;49.532;11.156;2022-08-23T10:06:46;1.25;;;0.20;;
15273;SDS011;7738;49.532;11.156;2022-08-23T10:09:22;0.25;;;0.00;;
15273;SDS011;7738;49.532;11.156;2022-08-23T10:11:54;0.85;;;0.20;;
15273;SDS011;7738;49.532;11.156;2022-08-23T10:14:26;3.33;;;0.10;;
15273;SDS011;7738;49.532;11.156;2022-08-23T10:17:02;0.57;;;0.10;;
15273;SDS011;7738;49.532;11.156;2022-08-23T10:19:41;1.02;;;0.20;;
15273;SDS011;7738;49.532;11.156;2022-08-23T10:22:22;0.55;;;0.15;;
15273;SDS011;7738;49.532;11.156;2022-08-23T10:25:10;0.82;;;0.20;;
15273;SDS011;7738;49.532;11.156;2022-08-23T10:27:52;0.40;;;0.10;;
15273;SDS011;7738;49.532;11.156;2022-08-23T10:30:39;0.30;;;0.00;;
15273;SDS011;7738;49.532;11.156;2022-08-23T10:33:15;0.55;;;0.15;;
15273;SDS011;7738;49.532;11.156;2022-08-23T10:35:56;1.30;;;0.10;;
15273;SDS011;7738;49.532;11.156;2022-08-23T10:38:35;0.82;;;0.10;;
15273;SDS011;7738;49.532;11.156;2022-08-23T10:44:05;1.98;;;0.13;;
15273;SDS011;7738;49.532;11.156;2022-08-23T10:46:56;0.30;;;0.08;;
15273;SDS011;7738;49.532;11.156;2022-08-23T10:49:29;0.68;;;0.10;;
15273;SDS011;7738;49.532;11.156;2022-08-23T10:54:36;0.22;;;0.00;;
15273;SDS011;7738;49.532;11.156;2022-08-23T10:57:32;0.43;;;0.00;;
15273;SDS011;7738;49.532;11.156;2022-08-23T11:00:07;0.28;;;0.10;;
15273;SDS011;7738;49.532;11.156;2022-08-23T11:02:43;1.13;;;0.10;;
15273;SDS011;7738;49.532;11.156;2022-08-23T11:05:26;0.30;;;0.00;;
15273;SDS011;7738;49.532;11.156;2022-08-23T11:08:02;0.38;;;0.00;;
15273;SDS011;7738;49.532;11.156;2022-08-23T11:10:44;0.75;;;0.10;;
15273;SDS011;7738;49.532;11.156;2022-08-23T11:13:28;0.63;;;0.00;;
15273;SDS011;7738;49.532;11.156;2022-08-23T11:16:03;0.70;;;0.17;;
15273;SDS011;7738;49.532;11.156;2022-08-23T11:18:44;2.55;;;0.50;;
15273;SDS011;7738;49.532;11.156;2022-08-23T11:21:40;1.50;;;0.10;;
15273;SDS011;7738;49.532;11.156;2022-08-23T11:27:03;1.20;;;0.08;;
15273;SDS011;7738;49.532;11.156;2022-08-23T11:29:40;0.50;;;0.08;;
15273;SDS011;7738;49.532;11.156;2022-08-23T11:32:37;0.60;;;0.10;;
15273;SDS011;7738;49.532;11.156;2022-08-23T11:35:11;0.20;;;0.10;;
15273;SDS011;7738;49.532;11.156;2022-08-23T11:37:53;3.15;;;0.20;;
15273;SDS011;7738;49.532;11.156;2022-08-23T11:40:39;0.77;;;0.10;;
15273;SDS011;7738;49.532;11.156;2022-08-23T11:43:37;3.70;;;0.20;;
15273;SDS011;7738;49.532;11.156;2022-08-23T11:46:13;0.35;;;0.00;;
15273;SDS011;7738;49.532;11.156;2022-08-23T11:48:46;1.77;;;0.15;;
15273;SDS011;7738;49.532;11.156;2022-08-23T11:51:21;0.77;;;0.10;;
15273;SDS011;7738;49.532;11.156;2022-08-23T11:56:55;0.47;;;0.08;;
15273;SDS011;7738;49.532;11.156;2022-08-23T12:05:01;0.70;;;0.10;;
15273;SDS011;7738;49.532;11.156;2022-08-23T12:10:22;0.50;;;0.10;;
15273;SDS011;7738;49.532;11.156;2022-08-23T12:18:23;2.15;;;0.00;;
15273;SDS011;7738;49.532;11.156;2022-08-23T12:20:58;0.88;;;0.20;;
15273;SDS011;7738;49.532;11.156;2022-08-23T12:23:29;1.63;;;0.32;;
15273;SDS011;7738;49.532;11.156;2022-08-23T12:26:22;0.45;;;0.20;;
15273;SDS011;7738;49.532;11.156;2022-08-23T12:28:55;1.30;;;0.15;;
15273;SDS011;7738;49.532;11.156;2022-08-23T12:31:28;1.27;;;0.10;;
15273;SDS011;7738;49.532;11.156;2022-08-23T12:34:05;0.65;;;0.20;;
15273;SDS011;7738;49.532;11.156;2022-08-23T12:36:43;1.15;;;0.10;;
15273;SDS011;7738;49.532;11.156;2022-08-23T12:39:20;11.15;;;0.40;;
15273;SDS011;7738;49.532;11.156;2022-08-23T12:41:52;1.30;;;0.13;;
15273;SDS011;7738;49.532;11.156;2022-08-23T12:44:26;3.72;;;0.20;;
15273;SDS011;7738;49.532;11.156;2022-08-23T12:47:08;1.30;;;0.10;;
15273;SDS011;7738;49.532;11.156;2022-08-23T12:49:38;0.52;;;0.15;;
15273;SDS011;7738;49.532;11.156;2022-08-23T12:52:11;0.88;;;0.10;;
15273;SDS011;7738;49.532;11.156;2022-08-23T12:54:42;1.83;;;0.05;;
15273;SDS011;7738;49.532;11.156;2022-08-23T12:57:15;1.15;;;0.20;;
15273;SDS011;7738;49.532;11.156;2022-08-23T12:59:47;1.98;;;0.05;;
15273;SDS011;7738;49.532;11.156;2022-08-23T13:02:28;2.08;;;0.10;;
15273;SDS011;7738;49.532;11.156;2022-08-23T13:05:02;1.05;;;0.10;;
15273;SDS011;7738;49.532;11.156;2022-08-23T13:07:41;1.65;;;0.10;;
15273;SDS011;7738;49.532;11.156;2022-08-23T13:10:11;0.85;;;0.10;;
15273;SDS011;7738;49.532;11.156;2022-08-23T13:12:41;1.00;;;0.00;;
15273;SDS011;7738;49.532;11.156;2022-08-23T13:15:12;0.47;;;0.10;;
15273;SDS011;7738;49.532;11.156;2022-08-23T13:18:02;2.05;;;0.10;;
15273;SDS011;7738;49.532;11.156;2022-08-23T13:20:33;1.65;;;0.10;;
15273;SDS011;7738;49.532;11.156;2022-08-23T13:23:06;0.98;;;0.10;;
15273;SDS011;7738;49.532;11.156;2022-08-23T13:25:41;2.03;;;0.75;;
15273;SDS011;7738;49.532;11.156;2022-08-23T13:28:20;0.45;;;0.00;;
15273;SDS011;7738;49.532;11.156;2022-08-23T13:30:56;0.88;;;0.17;;
15273;SDS011;7738;49.532;11.156;2022-08-23T13:33:28;1.00;;;0.25;;
15273;SDS011;7738;49.532;11.156;2022-08-23T13:36:04;0.70;;;0.00;;
15273;SDS011;7738;49.532;11.156;2022-08-23T13:38:41;2.83;;;0.20;;
15273;SDS011;7738;49.532;11.156;2022-08-23T13:41:26;0.35;;;0.08;;
15273;SDS011;7738;49.532;11.156;2022-08-23T13:44:04;3.28;;;0.20;;
15273;SDS011;7738;49.532;11.156;2022-08-23T13:46:41;0.47;;;0.10;;
15273;SDS011;7738;49.532;11.156;2022-08-23T13:49:15;1.63;;;0.10;;
15273;SDS011;7738;49.532;11.156;2022-08-23T13:52:02;1.98;;;0.10;;
15273;SDS011;7738;49.532;11.156;2022-08-23T13:54:58;1.00;;;0.10;;
15273;SDS011;7738;49.532;11.156;2022-08-23T13:57:28;1.08;;;0.10;;
15273;SDS011;7738;49.532;11.156;2022-08-23T14:00:03;0.40;;;0.10;;
15273;SDS011;7738;49.532;11.156;2022-08-23T14:02:37;1.95;;;0.10;;
15273;SDS011;7738;49.532;11.156;2022-08-23T14:05:08;0.40;;;0.10;;
15273;SDS011;7738;49.532;11.156;2022-08-23T14:07:38;0.50;;;0.20;;
15273;SDS011;7738;49.532;11.156;2022-08-23T14:10:11;1.40;;;0.40;;
15273;SDS011;7738;49.532;11.156;2022-08-23T14:12:43;0.88;;;0.28;;
15273;SDS011;7738;49.532;11.156;2022-08-23T14:15:17;1.88;;;0.15;;
15273;SDS011;7738;49.532;11.156;2022-08-23T14:18:07;2.72;;;0.20;;
15273;SDS011;7738;49.532;11.156;2022-08-23T14:20:38;1.88;;;0.60;;
15273;SDS011;7738;49.532;11.156;2022-08-23T14:23:11;1.02;;;0.30;;
15273;SDS011;7738;49.532;11.156;2022-08-23T14:25:44;0.93;;;0.20;;
15273;SDS011;7738;49.532;11.156;2022-08-23T14:28:15;2.65;;;0.35;;
15273;SDS011;7738;49.532;11.156;2022-08-23T14:30:46;1.73;;;0.60;;
15273;SDS011;7738;49.532;11.156;2022-08-23T14:33:17;1.08;;;0.20;;
15273;SDS011;7738;49.532;11.156;2022-08-23T14:35:48;3.42;;;0.45;;
15273;SDS011;7738;49.532;11.156;2022-08-23T14:38:18;1.55;;;0.43;;
15273;SDS011;7738;49.532;11.156;2022-08-23T14:40:52;0.60;;;0.20;;
15273;SDS011;7738;49.532;11.156;2022-08-23T14:43:25;0.40;;;0.20;;
15273;SDS011;7738;49.532;11.156;2022-08-23T14:45:56;0.82;;;0.30;;
15273;SDS011;7738;49.532;11.156;2022-08-23T14:48:27;1.02;;;0.40;;
15273;SDS011;7738;49.532;11.156;2022-08-23T14:50:57;2.75;;;0.20;;
15273;SDS011;7738;49.532;11.156;2022-08-23T14:53:29;2.88;;;0.30;;
15273;SDS011;7738;49.532;11.156;2022-08-23T14:56:05;1.23;;;0.30;;
15273;SDS011;7738;49.532;11.156;2022-08-23T14:58:47;0.60;;;0.20;;
15273;SDS011;7738;49.532;11.156;2022-08-23T15:01:18;1.17;;;0.30;;
15273;SDS011;7738;49.532;11.156;2022-08-23T15:03:48;0.90;;;0.38;;
15273;SDS011;7738;49.532;11.156;2022-08-23T15:06:19;0.85;;;0.20;;
15273;SDS011;7738;49.532;11.156;2022-08-23T15:08:49;1.35;;;0.10;;
15273;SDS011;7738;49.532;11.156;2022-08-23T15:11:22;1.40;;;0.13;;
15273;SDS011;7738;49.532;11.156;2022-08-23T15:14:13;0.75;;;0.30;;
15273;SDS011;7738;49.532;11.156;2022-08-23T15:16:43;0.73;;;0.20;;
15273;SDS011;7738;49.532;11.156;2022-08-23T15:19:13;0.73;;;0.30;;
15273;SDS011;7738;49.532;11.156;2022-08-23T15:21:44;1.65;;;0.20;;
15273;SDS011;7738;49.532;11.156;2022-08-23T15:24:14;1.60;;;0.40;;
15273;SDS011;7738;49.532;11.156;2022-08-23T15:26:47;1.27;;;0.32;;
15273;SDS011;7738;49.532;11.156;2022-08-23T15:29:19;1.02;;;0.30;;
15273;SDS011;7738;49.532;11.156;2022-08-23T15:31:49;3.33;;;0.30;;
15273;SDS011;7738;49.532;11.156;2022-08-23T15:34:21;3.45;;;0.10;;
15273;SDS011;7738;49.532;11.156;2022-08-23T15:36:51;3.60;;;0.28;;
15273;SDS011;7738;49.532;11.156;2022-08-23T15:39:21;2.13;;;0.20;;
15273;SDS011;7738;49.532;11.156;2022-08-23T15:41:54;1.45;;;0.20;;
15273;SDS011;7738;49.532;11.156;2022-08-23T15:44:24;1.00;;;0.35;;
15273;SDS011;7738;49.532;11.156;2022-08-23T15:46:55;0.88;;;0.22;;
15273;SDS011;7738;49.532;11.156;2022-08-23T15:49:25;0.57;;;0.17;;
15273;SDS011;7738;49.532;11.156;2022-08-23T15:52:02;0.40;;;0.10;;
15273;SDS011;7738;49.532;11.156;2022-08-23T15:54:33;0.47;;;0.20;;
15273;SDS011;7738;49.532;11.156;2022-08-23T15:57:06;0.47;;;0.17;;
15273;SDS011;7738;49.532;11.156;2022-08-23T15:59:36;1.05;;;0.30;;
15273;SDS011;7738;49.532;11.156;2022-08-23T16:02:06;1.20;;;0.20;;
15273;SDS011;7738;49.532;11.156;2022-08-23T16:04:36;1.45;;;0.22;;
15273;SDS011;7738;49.532;11.156;2022-08-23T16:07:07;0.68;;;0.28;;
15273;SDS011;7738;49.532;11.156;2022-08-23T16:09:40;4.35;;;0.25;;
15273;SDS011;7738;49.532;11.156;2022-08-23T16:12:14;0.40;;;0.20;;